createdAt,value
2022-09-18T00:01:20.940Z,7.20
2022-09-18T00:03:47.786Z,7.10
2022-09-18T00:06:20.370Z,7.20
2022-09-18T00:08:49.609Z,7.20
2022-09-18T00:11:18.377Z,7.20
2022-09-18T00:13:45.298Z,7.30
2022-09-18T00:16:14.445Z,7.30
2022-09-18T00:18:41.962Z,7.20
2022-09-18T00:21:12.022Z,7.20
2022-09-18T00:23:39.396Z,7.30
2022-09-18T00:26:07.142Z,7.20
2022-09-18T00:28:34.576Z,7.20
2022-09-18T00:31:18.755Z,7.20
2022-09-18T00:33:48.388Z,7.20
2022-09-18T00:36:18.193Z,7.20
2022-09-18T00:38:45.471Z,7.20
2022-09-18T00:41:16.144Z,7.20
2022-09-18T00:43:42.788Z,7.20
2022-09-18T00:46:30.091Z,7.20
2022-09-18T00:49:09.848Z,7.20
2022-09-18T00:51:38.675Z,7.20
2022-09-18T00:54:27.311Z,7.20
2022-09-18T00:56:59.046Z,7.10
2022-09-18T00:59:29.869Z,7.10
2022-09-18T01:01:58.111Z,7.10
2022-09-18T01:04:25.224Z,7.10
2022-09-18T01:07:14.913Z,7.10
2022-09-18T01:10:05.698Z,7.10
2022-09-18T01:12:45.241Z,7.20
2022-09-18T01:15:43.849Z,7.20
2022-09-18T01:18:44.798Z,7.20
2022-09-18T01:21:31.736Z,7.20
2022-09-18T01:24:16.883Z,7.30
2022-09-18T01:26:49.600Z,7.30
2022-09-18T01:29:27.131Z,7.30
2022-09-18T01:32:06.932Z,7.30
2022-09-18T01:34:47.948Z,7.40
2022-09-18T01:37:44.661Z,7.30
2022-09-18T01:40:18.351Z,7.50
2022-09-18T01:42:48.255Z,7.50
2022-09-18T01:45:26.195Z,7.50
2022-09-18T01:48:00.087Z,7.50
2022-09-18T01:50:28.959Z,7.50
2022-09-18T01:53:06.234Z,7.50
2022-09-18T01:55:34.278Z,7.60
2022-09-18T01:58:12.441Z,7.50
2022-09-18T02:00:44.279Z,7.50
2022-09-18T02:03:19.146Z,7.50
2022-09-18T02:06:12.310Z,7.60
2022-09-18T02:08:44.193Z,7.60
2022-09-18T02:11:13.303Z,7.60
2022-09-18T02:13:56.697Z,7.60
2022-09-18T02:16:36.496Z,7.60
2022-09-18T02:19:13.551Z,7.60
2022-09-18T02:21:42.880Z,7.60
2022-09-18T02:24:11.999Z,7.60
2022-09-18T02:26:40.517Z,7.50
2022-09-18T02:29:10.096Z,7.60
2022-09-18T02:31:40.088Z,7.60
2022-09-18T02:34:08.867Z,7.60
2022-09-18T02:36:44.152Z,7.60
2022-09-18T02:39:23.743Z,7.70
2022-09-18T02:42:17.273Z,7.70
2022-09-18T02:44:43.783Z,7.70
2022-09-18T02:47:15.978Z,7.70
2022-09-18T02:50:07.575Z,7.80
2022-09-18T02:52:46.503Z,7.80
2022-09-18T02:55:21.402Z,7.80
2022-09-18T02:58:13.706Z,7.80
2022-09-18T03:00:44.031Z,7.80
2022-09-18T03:03:15.699Z,7.80
2022-09-18T03:05:42.301Z,7.80
2022-09-18T03:08:08.944Z,7.90
2022-09-18T03:10:35.546Z,7.90
2022-09-18T03:13:02.137Z,7.90
2022-09-18T03:15:28.743Z,7.90
2022-09-18T03:17:55.322Z,7.90
2022-09-18T03:20:21.934Z,7.90
2022-09-18T03:22:49.508Z,8.00
2022-09-18T03:25:16.154Z,8.00
2022-09-18T03:27:43.000Z,8.00
2022-09-18T03:30:10.089Z,8.00
2022-09-18T03:32:36.674Z,8.00
2022-09-18T03:35:03.313Z,8.10
2022-09-18T03:37:29.921Z,8.10
2022-09-18T03:39:56.557Z,8.10
2022-09-18T03:42:23.143Z,8.20
2022-09-18T03:44:49.863Z,8.10
2022-09-18T03:47:16.421Z,8.10
2022-09-18T03:49:43.084Z,8.10
2022-09-18T03:52:09.677Z,8.10
2022-09-18T03:54:36.273Z,8.10
2022-09-18T03:57:02.991Z,8.10
2022-09-18T03:59:29.586Z,8.10
2022-09-18T04:01:57.440Z,8.10
2022-09-18T04:04:24.467Z,8.10
2022-09-18T04:06:51.100Z,8.10
2022-09-18T04:09:17.656Z,8.10
2022-09-18T04:11:44.240Z,8.10
2022-09-18T04:14:11.583Z,8.10
2022-09-18T04:16:38.338Z,8.20
2022-09-18T04:19:04.939Z,8.20
2022-09-18T04:21:32.606Z,8.20
2022-09-18T04:23:59.259Z,8.20
2022-09-18T04:26:26.989Z,8.20
2022-09-18T04:28:53.633Z,8.20
2022-09-18T04:31:20.245Z,8.20
2022-09-18T04:33:46.869Z,8.20
2022-09-18T04:36:13.419Z,8.20
2022-09-18T04:38:40.155Z,8.20
2022-09-18T04:41:06.772Z,8.30
2022-09-18T04:43:33.483Z,8.20
2022-09-18T04:46:00.216Z,8.30
2022-09-18T04:48:26.837Z,8.30
2022-09-18T04:50:53.422Z,8.30
2022-09-18T04:53:20.311Z,8.30
2022-09-18T04:55:47.845Z,8.30
2022-09-18T04:58:15.908Z,8.20
2022-09-18T05:00:42.540Z,8.30
2022-09-18T05:03:09.561Z,8.30
2022-09-18T05:05:36.252Z,8.30
2022-09-18T05:08:03.846Z,8.20
2022-09-18T05:10:30.492Z,8.30
2022-09-18T05:12:57.164Z,8.20
2022-09-18T05:15:23.959Z,8.30
2022-09-18T05:17:59.312Z,8.30
2022-09-18T05:20:26.793Z,8.30
2022-09-18T05:22:53.364Z,8.30
2022-09-18T05:25:23.300Z,8.30
2022-09-18T05:27:54.687Z,8.40
2022-09-18T05:30:22.548Z,8.30
2022-09-18T05:32:59.314Z,8.40
2022-09-18T05:35:28.277Z,8.40
2022-09-18T05:37:56.937Z,8.50
2022-09-18T05:40:26.081Z,8.50
2022-09-18T05:42:53.154Z,8.50
2022-09-18T05:45:20.383Z,8.50
2022-09-18T05:47:55.238Z,8.50
2022-09-18T05:50:23.443Z,8.50
2022-09-18T05:53:10.325Z,8.50
2022-09-18T05:55:37.358Z,8.50
2022-09-18T05:58:05.714Z,8.60
2022-09-18T06:00:34.192Z,8.60
2022-09-18T06:03:11.831Z,8.50
2022-09-18T06:05:39.393Z,8.50
2022-09-18T06:08:08.072Z,8.60
2022-09-18T06:10:37.786Z,8.60
2022-09-18T06:13:13.114Z,8.60
2022-09-18T06:15:40.082Z,8.70
2022-09-18T06:18:09.216Z,8.70
2022-09-18T06:20:36.114Z,8.70
2022-09-18T06:23:02.962Z,8.70
2022-09-18T06:25:30.728Z,8.70
2022-09-18T06:27:58.834Z,8.80
2022-09-18T06:30:34.884Z,8.80
2022-09-18T06:33:05.043Z,8.80
2022-09-18T06:35:33.638Z,8.80
2022-09-18T06:38:02.941Z,8.80
2022-09-18T06:40:30.638Z,8.80
2022-09-18T06:42:58.597Z,8.90
2022-09-18T06:45:26.016Z,8.90
2022-09-18T06:47:54.292Z,8.80
2022-09-18T06:50:22.568Z,8.80
2022-09-18T06:52:49.191Z,8.70
2022-09-18T06:55:17.864Z,8.70
2022-09-18T06:57:56.622Z,8.70
2022-09-18T07:00:24.562Z,8.70
2022-09-18T07:02:58.742Z,8.70
2022-09-18T07:05:31.160Z,8.70
2022-09-18T07:07:58.372Z,8.70
2022-09-18T07:10:25.703Z,8.70
2022-09-18T07:12:56.832Z,8.70
2022-09-18T07:15:23.916Z,8.70
2022-09-18T07:17:51.899Z,8.70
2022-09-18T07:20:19.794Z,8.70
2022-09-18T07:22:53.880Z,8.70
2022-09-18T07:25:21.061Z,8.80
2022-09-18T07:27:48.049Z,8.80
2022-09-18T07:30:15.372Z,8.80
2022-09-18T07:32:42.028Z,8.80
2022-09-18T07:35:09.686Z,8.80
2022-09-18T07:37:37.101Z,8.80
2022-09-18T07:40:04.052Z,8.80
2022-09-18T07:42:30.681Z,8.80
2022-09-18T07:44:57.670Z,8.80
2022-09-18T07:47:27.965Z,8.80
2022-09-18T07:49:54.785Z,8.80
2022-09-18T07:52:21.497Z,8.80
2022-09-18T07:54:48.067Z,8.90
2022-09-18T07:57:14.703Z,8.90
2022-09-18T07:59:41.299Z,8.80
2022-09-18T08:02:08.144Z,8.70
2022-09-18T08:04:34.950Z,8.80
2022-09-18T08:07:04.125Z,8.80
2022-09-18T08:09:31.157Z,8.90
2022-09-18T08:11:58.245Z,8.80
2022-09-18T08:14:28.777Z,8.90
2022-09-18T08:16:56.021Z,8.90
2022-09-18T08:19:22.669Z,8.90
2022-09-18T08:21:49.330Z,8.90
2022-09-18T08:24:17.359Z,8.90
2022-09-18T08:26:44.481Z,8.90
2022-09-18T08:29:18.784Z,9.00
2022-09-18T08:31:46.640Z,9.00
2022-09-18T08:34:13.784Z,9.10
2022-09-18T08:36:40.378Z,9.10
2022-09-18T08:39:07.550Z,9.20
2022-09-18T08:41:45.999Z,9.20
2022-09-18T08:44:23.853Z,9.30
2022-09-18T08:47:02.643Z,9.20
2022-09-18T08:49:37.370Z,9.30
2022-09-18T08:52:22.872Z,9.30
2022-09-18T08:55:04.764Z,9.30
2022-09-18T08:57:44.252Z,9.30
2022-09-18T15:40:47.244Z,9.40
2022-09-18T15:43:33.606Z,12.00
2022-09-18T15:46:09.015Z,11.90
2022-09-18T15:48:48.015Z,11.80
2022-09-18T15:51:22.650Z,11.80
2022-09-18T15:54:22.712Z,11.80
2022-09-18T15:56:58.532Z,11.80
2022-09-18T15:59:31.206Z,11.80
2022-09-18T16:01:58.965Z,11.70
2022-09-18T16:04:32.757Z,11.70
2022-09-18T16:07:06.269Z,11.70
2022-09-18T16:09:35.740Z,11.70
2022-09-18T16:12:22.680Z,11.70
2022-09-18T16:15:35.909Z,11.70
2022-09-18T16:18:21.546Z,11.60
2022-09-18T16:20:49.409Z,11.50
2022-09-18T16:23:40.769Z,11.60
2022-09-18T16:26:14.398Z,11.60
2022-09-18T16:28:49.340Z,11.60
2022-09-18T16:31:19.380Z,11.60
2022-09-18T16:34:01.120Z,11.50
2022-09-18T16:36:46.503Z,11.50
2022-09-18T16:39:15.754Z,11.50
2022-09-18T16:41:43.160Z,11.50
2022-09-18T16:44:11.792Z,11.50
2022-09-18T16:46:47.459Z,11.50
2022-09-18T16:49:17.080Z,11.40
2022-09-18T16:51:43.695Z,11.40
2022-09-18T16:54:10.263Z,11.40
2022-09-18T16:56:47.123Z,11.30
2022-09-18T16:59:13.781Z,11.50
2022-09-18T17:02:00.435Z,11.40
2022-09-18T17:04:28.238Z,11.40
2022-09-18T17:06:55.111Z,11.40
2022-09-18T17:09:23.749Z,11.40
2022-09-18T17:11:51.544Z,11.30
2022-09-18T17:14:18.592Z,11.30
2022-09-18T17:16:45.361Z,11.20
2022-09-18T17:19:12.836Z,11.30
2022-09-18T17:21:41.538Z,11.30
2022-09-18T17:24:09.587Z,11.30
2022-09-18T17:26:37.808Z,11.20
2022-09-18T17:29:05.067Z,11.20
2022-09-18T17:31:31.805Z,11.20
2022-09-18T17:33:58.515Z,11.20
2022-09-18T17:36:25.244Z,11.20
2022-09-18T17:38:52.229Z,11.20
2022-09-18T17:41:19.853Z,11.10
2022-09-18T17:43:53.631Z,11.10
2022-09-18T17:46:20.964Z,11.00
2022-09-18T17:48:47.737Z,11.00
2022-09-18T17:51:18.370Z,11.00
2022-09-18T17:53:47.576Z,11.10
2022-09-18T17:56:19.232Z,11.10
2022-09-18T17:58:46.573Z,11.20
2022-09-18T18:01:16.151Z,11.20
2022-09-18T18:03:42.897Z,11.20
2022-09-18T18:06:11.061Z,11.10
2022-09-18T18:08:37.982Z,11.00
2022-09-18T18:11:10.644Z,11.10
2022-09-18T18:13:39.007Z,11.10
2022-09-18T18:16:10.602Z,11.10
2022-09-18T18:18:38.445Z,11.00
2022-09-18T18:21:06.465Z,11.10
2022-09-18T18:23:34.022Z,11.10
2022-09-18T18:26:04.667Z,11.00
2022-09-18T18:28:32.562Z,11.10
2022-09-18T18:31:06.066Z,11.10
2022-09-18T18:33:34.599Z,11.10
2022-09-18T18:36:15.746Z,11.00
2022-09-18T18:38:45.102Z,11.00
2022-09-18T18:41:13.063Z,11.00
2022-09-18T18:43:40.922Z,11.00
2022-09-18T18:46:10.449Z,11.00
2022-09-18T18:48:37.489Z,11.00
2022-09-18T18:51:06.311Z,11.00
2022-09-18T18:53:34.922Z,11.00
2022-09-18T18:56:08.380Z,10.90
2022-09-18T18:58:35.468Z,10.90
2022-09-18T19:01:14.645Z,10.90
2022-09-18T19:03:45.473Z,10.90
2022-09-18T19:06:14.520Z,10.90
2022-09-18T19:08:44.415Z,10.90
2022-09-18T19:11:11.963Z,10.90
2022-09-18T19:13:43.073Z,10.90
2022-09-18T19:16:13.192Z,10.90
2022-09-18T19:18:41.063Z,10.90
2022-09-18T19:21:07.940Z,10.90
2022-09-18T19:23:37.560Z,10.80
2022-09-18T19:26:04.240Z,10.80
2022-09-18T19:28:30.978Z,10.80
2022-09-18T19:31:04.760Z,10.80
2022-09-18T19:33:34.584Z,10.80
2022-09-18T19:36:07.936Z,10.80
2022-09-18T19:38:36.785Z,10.90
2022-09-18T19:41:17.846Z,10.90
2022-09-18T19:43:45.438Z,10.80
2022-09-18T19:46:18.427Z,10.80
2022-09-18T19:48:45.376Z,10.70
2022-09-18T19:51:12.167Z,10.70
2022-09-18T19:53:38.834Z,10.70
2022-09-18T19:56:27.472Z,10.60
2022-09-18T19:58:57.943Z,10.60
2022-09-18T20:01:24.550Z,10.60
2022-09-18T20:03:54.894Z,10.70
2022-09-18T20:06:22.811Z,10.60
2022-09-18T20:08:50.019Z,10.70
2022-09-18T20:11:16.675Z,10.70
2022-09-18T20:13:43.329Z,10.70
2022-09-18T20:16:10.745Z,10.80
2022-09-18T20:18:38.189Z,10.80
2022-09-18T20:21:11.008Z,10.80
2022-09-18T20:23:38.411Z,10.80
2022-09-18T20:26:13.036Z,10.90
2022-09-18T20:28:39.916Z,10.90
2022-09-18T20:31:09.824Z,10.90
2022-09-18T20:33:37.900Z,10.80
2022-09-18T20:36:06.280Z,10.80
2022-09-18T20:38:34.825Z,10.90
2022-09-18T20:41:06.781Z,10.90
2022-09-18T20:43:35.525Z,11.00
2022-09-18T20:46:04.992Z,11.00
2022-09-18T20:48:38.365Z,11.00
2022-09-18T20:51:10.636Z,11.00
2022-09-18T20:53:41.643Z,11.00
2022-09-18T20:56:10.723Z,11.00
2022-09-18T20:58:40.364Z,11.10
2022-09-18T21:01:15.251Z,11.10
2022-09-18T21:03:43.377Z,11.10
2022-09-18T21:06:23.290Z,11.10
2022-09-18T21:08:53.209Z,11.20
2022-09-18T21:11:25.489Z,11.20
2022-09-18T21:13:57.751Z,11.20
2022-09-18T21:16:26.333Z,11.20
2022-09-18T21:18:55.540Z,11.20
2022-09-18T21:21:22.681Z,11.20
2022-09-18T21:24:01.183Z,11.20
2022-09-18T21:26:35.408Z,11.20
2022-09-18T21:29:06.550Z,11.20
2022-09-18T21:31:39.136Z,11.20
2022-09-18T21:34:05.980Z,11.20
2022-09-18T21:36:33.597Z,11.10
2022-09-18T21:39:00.681Z,11.00
2022-09-18T21:41:27.253Z,10.80
2022-09-18T21:43:54.123Z,10.80
2022-09-18T21:46:22.190Z,10.60
2022-09-18T21:48:54.263Z,10.60
2022-09-18T21:51:21.261Z,10.50
2022-09-18T21:53:48.175Z,10.40
2022-09-18T21:56:17.566Z,10.40
2022-09-18T21:58:45.344Z,10.40
2022-09-18T22:01:19.490Z,10.40
2022-09-18T22:03:53.354Z,10.30
2022-09-18T22:06:25.894Z,10.30
2022-09-18T22:08:55.143Z,10.20
2022-09-18T22:11:26.152Z,9.90
2022-09-18T22:13:54.718Z,9.60
2022-09-18T22:16:26.133Z,9.40
2022-09-18T22:18:53.686Z,9.20
2022-09-18T22:21:40.316Z,9.10
2022-09-18T22:24:10.744Z,8.90
2022-09-18T22:26:46.673Z,8.90
2022-09-18T22:29:34.514Z,8.80
2022-09-18T22:32:02.666Z,8.80
2022-09-18T22:34:32.438Z,8.70
2022-09-18T22:37:00.360Z,8.70
2022-09-18T22:39:27.367Z,8.70
2022-09-18T22:41:54.825Z,8.60
2022-09-18T22:44:22.497Z,8.60
2022-09-18T22:46:51.965Z,8.60
2022-09-18T22:49:20.549Z,8.50
2022-09-18T22:51:47.652Z,8.50
2022-09-18T22:54:16.621Z,8.60
2022-09-18T22:56:47.965Z,8.60
2022-09-18T22:59:17.293Z,8.60
2022-09-18T23:01:50.931Z,8.60
2022-09-18T23:04:19.508Z,8.60
2022-09-18T23:06:47.898Z,8.60
2022-09-18T23:09:15.781Z,8.60
2022-09-18T23:11:43.878Z,8.60
2022-09-18T23:14:15.049Z,8.60
2022-09-18T23:16:41.746Z,8.60
2022-09-18T23:19:12.992Z,8.60
2022-09-18T23:21:40.031Z,8.70
2022-09-18T23:24:09.248Z,8.70
2022-09-18T23:26:41.454Z,8.60
2022-09-18T23:29:11.247Z,8.60
2022-09-18T23:31:40.506Z,8.60
2022-09-18T23:34:11.563Z,8.70
2022-09-18T23:36:41.448Z,8.70
2022-09-18T23:39:22.423Z,8.70
2022-09-18T23:41:49.726Z,8.70
2022-09-18T23:44:18.672Z,8.70
2022-09-18T23:46:47.114Z,8.80
2022-09-18T23:49:15.373Z,8.70
2022-09-18T23:51:46.104Z,8.70
2022-09-18T23:54:19.666Z,8.70
2022-09-18T23:56:47.261Z,8.70
2022-09-18T23:59:18.590Z,8.70
